Steptoe Valley WMA, Nevada Weather observations

Data are for 10 minute period ending at time listed.
 Day   Time   Solar   Ave.   Ave.  Ave.  Vector  Max.   Baro.   Total    
  of    of     Rad.   Air    Rel.  Wind   Wind   Wind  Press.  Precip.   
Year   Day            Temp.  Hum.  Speed  Dir.   Gust                    
2016   (PST)  Kw/m2    F      %     mph   deg.    mph    mb.     in.     
-------------------------------------------------------------------------
 178    9:00   0.79   73.3    24    1.6   215     5.7   809.2    0.00 
 178    9:10   0.81   74.8    23    1.7   239     3.4   809.2    0.00 
 178    9:20   0.83   76.5    24    2.5   196     5.1   809.0    0.00 
 178    9:30   0.86   78.0    23    2.5   208     5.2   809.0    0.00 
 178    9:40   0.88   78.9    19    2.8   192     6.4   809.0    0.00 
 178    9:50   0.89   80.0    20    3.4   203     8.2   808.9    0.00 
 178   10:00   0.91   80.3    22    5.1   197     8.3   808.8    0.00 
 178   10:10   0.93   81.2    18    3.5   194     8.5   808.7    0.00 
 178   10:20   0.94   82.3    16    3.5   189     6.8   808.7    0.00 
 178   10:30   0.96   82.7    15    2.9   191     7.9   808.6    0.00 
 178   10:40   0.97   83.9    16    3.2   152     7.0   808.4    0.00 
 178   10:50   0.98   83.9    16    3.5   217     8.7   808.4    0.00 
 178   11:00   0.99   84.4    13    2.6   255     5.6   808.3    0.00 
 178   11:10   0.79   83.2    15    6.2   249    17.1   808.3    0.00 
 178   11:20   1.00   83.3    13    8.0   274    14.5   808.4    0.00 
 178   11:30   1.01   83.7    13    9.9   221    18.7   808.4    0.00 
 178   11:40   1.01   83.2    13   11.8   179    19.4   808.4    0.00 
 178   11:50   1.01   84.0    13    7.4   179    16.4   808.4    0.00 
 178   12:00   1.01   83.9    15   10.6   189    16.7   808.4    0.00 
 178   12:10   1.00   84.0    15    7.9   217    19.9   808.4    0.00 
 178   12:20   1.00   84.1    16    7.1   224    19.3   808.4    0.00 
 178   12:30   0.99   84.4    13    5.6   210    13.7   808.4    0.00 
 178   12:40   0.98   85.0    12    4.5   204    11.2   808.3    0.00 
 178   12:50   0.99   85.0    11    4.9   348     8.6   808.2    0.00 
 178   13:00   0.97   85.9    14    5.0   193    11.7   808.2    0.00 
 178   13:10   0.94   85.6    15    5.8   231    12.6   808.1    0.00 
 178   13:20   0.93   85.9    11    4.5   317    12.6   808.0    0.00 
 178   13:30   0.91   86.3    11    2.9   309     9.6   807.7    0.00 
 178   13:40   0.90   86.6    14    6.4   226    13.8   807.6    0.00 
 178   13:50   0.88   86.8    13    6.1   226    13.7   807.5    0.00 
 178   14:00   0.86   86.5    12    4.3   264     9.1   807.5    0.00 
 178   14:10   0.83   87.4    11    3.0   185     6.6   807.4    0.00 
 178   14:20   0.82   87.3    12    5.5   224    11.7   807.3    0.00 
 178   14:30   0.79   86.0    14    7.5   245    14.9   807.3    0.00 
 178   14:40   0.77   86.2    13    4.8   228    13.4   807.4    0.00 
 178   14:50   0.75   87.7    12    4.1   175     9.3   807.2    0.00 
 178   15:00   0.72   86.4    14    8.3   205    19.3   807.0    0.00 
 178   15:10   0.69   85.9    14    7.1   208    12.6   807.1    0.00 
 178   15:20   0.67   85.8    14    5.6   214    12.1   807.1    0.00 
 178   15:30   0.64   86.3    12    7.5   202    14.8   807.0    0.00 
 178   15:40   0.61   86.3    11    6.8   176    11.2   806.9    0.00 
 178   15:50   0.58   86.4    13    5.8   197    16.7   806.8    0.00 
 178   16:00   0.56   86.3    13    5.7   284    11.2   806.9    0.00 
 178   16:10   0.52   85.7    12    5.3   253     9.5   806.9    0.00 
 178   16:20   0.49   86.3    13    4.8   242    19.2   806.8    0.00 
 178   16:30   0.46   84.5    14    6.4   225    10.7   806.7    0.00 
 178   16:40   0.42   84.1    17    3.8   197     6.6   806.7    0.00 
 178   16:50   0.39   85.7    15    2.7   224     5.8   806.8    0.00 
 178   17:00   0.36   86.9    13    1.2   232     4.3   806.7    0.00 
 178   17:10   0.32   89.9    12    0.9   204     3.9   806.7    0.00 
 178   17:20   0.29   84.8    18    4.2   180     6.9   806.8    0.00 
 178   17:30   0.26   81.7    20    4.7   180     6.2   806.8    0.00 
 178   17:40   0.23   81.9    18    3.2   182     6.2   806.8    0.00 
 178   17:50   0.17   80.9    19    4.6   174     8.4   806.9    0.00 
 178   18:00   0.16   78.7    19    5.5   174     7.5   806.9    0.00 
 178   18:10   0.12   76.4    24    4.8   173     6.6   807.0    0.00 
 178   18:20   0.06   75.1    22    4.5   170     5.7   807.0    0.00 
 178   18:30   0.03   76.2    15    4.0   153     5.2   807.0    0.00 
 178   18:40   0.02   75.4    18    4.0   160     6.3   807.1    0.00 
 178   18:50   0.02   69.6    26    2.9   167     4.2   807.1    0.00 
 178   19:00   0.02   66.5    30    2.6   166     3.4   807.2    0.00 
 178   19:10   0.01   67.7    21    3.0   144     5.3   807.2    0.00 
 178   19:20   0.00   68.3    17    5.3   125     7.2   807.1    0.00 
 178   19:30   0.00   66.7    21    4.2   154     7.2   807.2    0.00 
 178   19:40   0.00   68.8    15    6.5   125     8.2   807.1    0.00 
 178   19:50   0.00   68.6    14    6.3   116     8.1   807.2    0.00 
 178   20:00   0.00   68.5    15    4.6   142     7.2   807.3    0.00 
 178   20:10   0.00   63.3    24    3.9   168     7.4   807.4    0.00 
 178   20:20   0.00   59.7    27    2.3   158     4.6   807.3    0.00 
 178   20:30   0.00   58.0    31    3.3   172     5.7   807.3    0.00 
 178   20:40   0.00   56.0    36    3.7   180     5.3   807.4    0.00 
 178   20:50   0.00   53.4    41    3.7   163     5.2   807.4    0.00 
 178   21:00   0.00   53.6    37    3.8   167     5.7   807.4    0.00 
 178   21:10   0.00   51.6    42    3.9   166     5.3   807.4    0.00 
 178   21:20   0.00   50.7    48    3.9   163     5.6   807.4    0.00 
 178   21:30   0.00   51.2    44    4.0   166     5.7   807.5    0.00 
 178   21:40   0.00   51.5    42    2.5   168     5.4   807.6    0.00 
 178   21:50   0.00   51.5    45    0.8   203     2.3   807.8    0.00 
 178   22:00   0.00   50.7    47    1.2   137     2.4   807.9    0.00 
 178   22:10   0.00   50.3    40    0.8   170     2.4   807.9    0.00 
 178   22:20   0.00   50.0    42    2.5   159     3.9   808.1    0.00 
 178   22:30   0.00   51.8    33    1.8   146     3.4   808.1    0.00 
 178   22:40   0.00   50.9    46    1.9   170     3.4   808.2    0.00 
 178   22:50   0.00   48.0    48    2.0   158     4.9   808.2    0.00 
 178   23:00   0.00   47.6    55    1.7   174     3.4   808.3    0.00 
 178   23:10   0.00   47.6    45    1.4   160     2.5   808.3    0.00 
 178   23:20   0.00   47.1    50    2.3   161     3.2   808.3    0.00 
 178   23:30   0.00   45.9    57    2.6   173     3.4   808.5    0.00 
 178   23:40   0.00   44.1    54    3.2   168     4.5   808.6    0.00 
 178   23:50   0.00   48.8    41    3.5   168     6.5   808.5    0.00 
 179    0:00   0.00   48.0    46    3.2   176     5.1   808.6    0.00 
 179    0:10   0.00   45.4    50    2.5   175     5.9   808.6    0.00 
 179    0:20   0.00   44.4    50    2.6   156     4.4   808.7    0.00 
 179    0:30   0.00   45.7    48    1.8   157     4.2   808.7    0.00 
 179    0:40   0.00   43.7    54    3.8   171     6.4   808.7    0.00 
 179    0:50   0.00   45.7    48    3.9   182     5.7   808.7    0.00 
 179    1:00   0.00   44.1    52    1.4   154     3.4   808.7    0.00 
 179    1:10   0.00   44.3    53    0.3    84     1.2   808.7    0.00 
 179    1:20   0.00   43.9    60    0.8   178     2.0   808.8    0.00 
 179    1:30   0.00   42.6    55    1.7   166     3.8   808.7    0.00 
 179    1:40   0.00   41.4    56    1.8   348     3.2   808.9    0.00 
 179    1:50   0.00   41.2    56    1.3   345     3.6   809.0    0.00 
 179    2:00   0.00   42.0    54    4.0   174     5.4   809.0    0.00 
 179    2:10   0.00   42.4    52    5.1   174    10.1   809.0    0.00 
 179    2:20   0.00   45.1    47    4.8   178     8.0   809.0    0.00 
 179    2:30   0.00   43.7    51    4.3   185     7.2   808.9    0.00 
 179    2:40   0.00   42.7    50    5.5   169     7.0   808.9    0.00 
 179    2:50   0.00   42.7    50    5.5   166     6.9   808.9    0.00 
 179    3:00   0.00   42.1    51    2.9   163     6.5   809.1    0.00 
 179    3:10   0.00   41.6    54    1.9    52     3.7   809.2    0.00 
 179    3:20   0.00   41.4    57    1.9    10     3.7   809.5    0.00 
 179    3:30   0.00   40.7    58    1.5   109     4.0   809.5    0.00 
 179    3:40   0.00   39.9    58    1.1   313     2.9   809.6    0.00 
 179    3:50   0.00   38.8    64    1.0   122     2.2   809.6    0.00 
 179    4:00   0.00   40.6    58    2.1   136     3.1   809.7    0.00 
 179    4:10   0.00   40.8    54    3.6   119     5.1   809.7    0.00 
 179    4:20   0.00   41.1    53    2.6   147     4.3   809.7    0.00 
 179    4:30   0.01   40.0    62    2.1   175     2.9   809.7    0.00 
 179    4:40   0.01   36.7    72    1.1   340     2.1   809.8    0.00 
 179    4:50   0.02   35.8    73    1.4   170     2.5   809.8    0.00 
 179    5:00   0.02   37.8    68    1.5   181     3.1   809.8    0.00 
 179    5:10   0.02   40.2    61    1.2   164     2.0   809.8    0.00 
 179    5:20   0.03   41.0    62    1.9   167     2.4   809.9    0.00 
 179    5:30   0.09   40.9    62    2.9   158     3.9   810.0    0.00 
 179    5:40   0.17   44.6    57    2.3   155     3.6   810.1    0.00 
 179    5:50   0.20   48.6    55    3.0   159     4.3   810.1    0.00 
 179    6:00   0.23   52.1    55    2.4   168     4.1   810.2    0.00 
 179    6:10   0.26   54.8    52    2.6   171     4.4   810.2    0.00 
 179    6:20   0.29   57.7    46    1.7   207     3.2   810.1    0.00 
 179    6:30   0.33   61.3    39    2.1   177     4.4   810.1    0.00 
 179    6:40   0.36   62.2    38    3.4   214     5.0   810.1    0.00 
 179    6:50   0.39   62.1    40    3.3   219     5.6   810.0    0.00 
 179    7:00   0.43   63.0    40    3.4   198     5.9   810.0    0.00 
 179    7:10   0.46   64.6    40    3.8   197     5.3   810.0    0.00 
 179    7:20   0.49   66.1    35    3.4   195     5.1   810.0    0.00 
 179    7:30   0.53   68.2    32    2.4   189     3.6   810.0    0.00 
 179    7:40   0.56   69.7    28    2.2   199     3.4   810.0    0.00 
 179    7:50   0.59   70.6    26    1.9   231     3.1   810.1    0.00 
 179    8:00   0.62   71.5    27    1.6   236     3.3   810.1    0.00 
 179    8:10   0.65   73.5    27    1.5   227     2.5   810.1    0.00 
 179    8:20   0.67   74.8    23    1.7   235     2.9   810.1    0.00 
 179    8:30   0.70   76.4    21    1.0   228     3.1   810.0    0.00 
 179    8:40   0.73   77.6    22    1.6   230     2.9   810.0    0.00 
 179    8:50   0.75   78.5    20    1.3   274     3.5   809.9    0.00 

Return to Steptoe Valley WMA graphs page.


Western Regional Climate Center,wrcc@dri.edu